Dulas, United Kingdom
Current Conditions -  °F | °C
As of 4:50 AM on Thursday 18 Dec 2014 (Local Time) from EGOV Reporting Station
Broken Clouds Broken Clouds  
Wind Chill: 54°   Ceiling: 2000
Heat Index: 54°   Visibility: 6mi
Dew Point: 52°   Wind: 25mph
Humidity: 94%   Direction: 210°SSW
Pressure: 29.65"   Gusts: NA
Location:  53.37°N, 4.3°W
Report Text: EGOV 180450Z 21022KT 9999 FEW008 BKN020 12/11 Q1004 WHT
Loading
Personal Weather Stations






























Interactive Weather Map New forecast layout! Learn more

10-Day Weather Forecast

Advertisements
Track Severe Weather on mobile